createdAt,value
2018-09-12T00:00:39.462Z,71.52
2018-09-12T00:03:08.135Z,71.31
2018-09-12T00:05:36.764Z,71.94
2018-09-12T00:08:05.469Z,72.61
2018-09-12T00:10:34.111Z,72.63
2018-09-12T00:13:02.752Z,72.86
2018-09-12T00:15:31.395Z,72.36
2018-09-12T00:18:00.011Z,72.13
2018-09-12T00:20:28.645Z,71.68
2018-09-12T00:22:57.288Z,71.87
2018-09-12T00:25:25.937Z,72.64
2018-09-12T00:27:54.527Z,72.99
2018-09-12T00:30:23.151Z,73.74
2018-09-12T00:32:51.769Z,73.62
2018-09-12T00:35:20.413Z,74.54
2018-09-12T00:40:24.073Z,74.88
2018-09-12T00:42:52.668Z,75.64
2018-09-12T00:45:21.263Z,75.71
2018-09-12T00:47:49.985Z,75.04
2018-09-12T00:50:18.598Z,75.10
2018-09-12T00:52:47.348Z,76.62
2018-09-12T00:55:16.077Z,76.46
2018-09-12T00:57:44.714Z,76.29
2018-09-12T01:00:13.443Z,76.20
2018-09-12T01:02:44.237Z,76.16
2018-09-12T01:05:12.839Z,76.17
2018-09-12T01:07:41.464Z,75.85
2018-09-12T01:10:10.099Z,76.62
2018-09-12T01:12:38.702Z,77.16
2018-09-12T01:15:07.459Z,76.79
2018-09-12T01:17:36.088Z,77.55
2018-09-12T01:20:04.769Z,77.57
2018-09-12T01:22:33.383Z,77.90
2018-09-12T01:25:01.980Z,77.76
2018-09-12T01:27:30.615Z,77.42
2018-09-12T01:29:59.231Z,77.44
2018-09-12T01:32:27.883Z,77.61
2018-09-12T01:34:56.558Z,77.67
2018-09-12T01:37:25.246Z,77.45
2018-09-12T01:39:53.884Z,78.52
2018-09-12T01:42:22.540Z,78.68
2018-09-12T01:44:51.224Z,78.44
2018-09-12T01:47:19.841Z,78.63
2018-09-12T01:49:48.500Z,78.56
2018-09-12T01:52:17.146Z,78.35
2018-09-12T01:54:45.735Z,78.94
2018-09-12T01:57:14.360Z,79.19
2018-09-12T01:59:43.051Z,79.38
2018-09-12T02:02:11.732Z,79.50
2018-09-12T02:04:40.341Z,79.04
2018-09-12T02:07:08.965Z,79.52
2018-09-12T02:09:37.632Z,80.03
2018-09-12T02:12:06.250Z,79.24
2018-09-12T02:14:34.879Z,78.97
2018-09-12T02:17:03.481Z,78.79
2018-09-12T02:19:32.127Z,79.25
2018-09-12T02:22:03.539Z,78.84
2018-09-12T02:24:32.232Z,79.02
2018-09-12T02:27:00.877Z,78.32
2018-09-12T02:29:29.515Z,78.16
2018-09-12T02:31:58.132Z,79.08
2018-09-12T02:34:26.754Z,78.58
2018-09-12T02:36:55.405Z,78.29
2018-09-12T02:39:24.126Z,79.22
2018-09-12T02:41:52.927Z,79.95
2018-09-12T02:44:21.692Z,78.56
2018-09-12T02:46:50.435Z,78.98
2018-09-12T02:49:19.239Z,79.47
2018-09-12T02:51:47.999Z,79.61
2018-09-12T02:54:16.808Z,79.68
2018-09-12T02:56:45.586Z,79.42
2018-09-12T02:59:14.312Z,79.74
2018-09-12T03:01:43.042Z,79.40
2018-09-12T03:04:28.134Z,79.54
2018-09-12T03:06:56.944Z,79.27
2018-09-12T03:09:25.693Z,79.45
2018-09-12T03:11:54.412Z,79.21
2018-09-12T03:14:23.247Z,80.08
2018-09-12T03:16:51.976Z,80.81
2018-09-12T03:19:20.720Z,80.21
2018-09-12T03:21:49.604Z,80.38
2018-09-12T03:24:18.322Z,80.43
2018-09-12T03:26:47.004Z,79.97
2018-09-12T03:29:15.668Z,80.50
2018-09-12T03:31:44.355Z,80.34
2018-09-12T03:34:13.054Z,80.37
2018-09-12T03:36:41.719Z,80.84
2018-09-12T03:39:11.828Z,81.32
2018-09-12T03:41:41.308Z,80.60
2018-09-12T03:44:11.150Z,80.87
2018-09-12T03:46:40.887Z,80.55
2018-09-12T03:49:09.798Z,81.45
2018-09-12T03:51:38.514Z,81.28
2018-09-12T03:54:07.126Z,81.40
2018-09-12T03:56:35.761Z,80.64
2018-09-12T03:59:04.508Z,81.60
2018-09-12T04:01:33.221Z,82.27
2018-09-12T04:04:01.814Z,82.11
2018-09-12T04:06:30.428Z,82.37
2018-09-12T04:09:00.033Z,82.11
2018-09-12T04:11:28.648Z,82.25
2018-09-12T04:13:57.256Z,80.97
2018-09-12T04:16:25.867Z,80.77
2018-09-12T04:18:54.464Z,80.50
2018-09-12T04:21:23.164Z,80.08
2018-09-12T04:23:51.856Z,78.93
2018-09-12T04:26:20.475Z,78.48
2018-09-12T04:28:49.198Z,77.36
2018-09-12T04:31:17.837Z,76.41
2018-09-12T04:33:46.446Z,75.55
2018-09-12T04:36:15.119Z,75.42
2018-09-12T04:38:43.724Z,75.07
2018-09-12T04:41:12.734Z,74.75
2018-09-12T04:43:41.825Z,74.43
2018-09-12T04:46:10.744Z,73.20
2018-09-12T04:48:39.420Z,72.84
2018-09-12T04:51:08.116Z,71.66
2018-09-12T04:53:36.783Z,70.05
2018-09-12T04:56:06.126Z,69.66
2018-09-12T04:58:34.772Z,68.87
2018-09-12T05:01:03.531Z,68.56
2018-09-12T05:03:32.155Z,67.31
2018-09-12T05:06:00.802Z,66.57
2018-09-12T05:08:29.402Z,66.35
2018-09-12T05:10:58.066Z,66.26
2018-09-12T05:13:26.677Z,66.17
2018-09-12T05:15:55.374Z,65.74
2018-09-12T05:18:24.016Z,64.77
2018-09-12T05:20:52.648Z,63.67
2018-09-12T05:23:21.331Z,62.06
2018-09-12T05:25:49.983Z,60.96
2018-09-12T05:28:18.620Z,61.34
2018-09-12T05:30:47.310Z,60.70
2018-09-12T05:33:15.994Z,60.70
2018-09-12T05:35:44.617Z,61.17
2018-09-12T05:38:13.264Z,59.84
2018-09-12T05:40:41.913Z,58.27
2018-09-12T05:43:10.547Z,57.33
2018-09-12T05:45:39.271Z,58.31
2018-09-12T05:48:07.957Z,58.25
2018-09-12T05:50:36.626Z,56.93
2018-09-12T05:53:05.328Z,55.87
2018-09-12T05:55:34.083Z,55.42
2018-09-12T05:58:03.429Z,54.67
2018-09-12T06:00:32.057Z,53.67
2018-09-12T06:03:00.821Z,54.56
2018-09-12T06:05:29.497Z,53.17
2018-09-12T06:07:58.097Z,53.29
2018-09-12T06:10:26.718Z,52.05
2018-09-12T06:12:55.350Z,50.79
2018-09-12T06:15:24.077Z,49.51
2018-09-12T06:17:52.742Z,49.32
2018-09-12T06:20:21.403Z,50.02
2018-09-12T06:22:50.135Z,50.78
2018-09-12T06:25:18.829Z,49.91
2018-09-12T06:27:47.482Z,50.33
2018-09-12T06:30:16.372Z,48.81
2018-09-12T06:32:45.118Z,48.96
2018-09-12T06:35:13.868Z,47.88
2018-09-12T06:37:42.685Z,47.95
2018-09-12T06:40:11.400Z,48.56
2018-09-12T06:42:40.178Z,48.77
2018-09-12T06:45:08.925Z,47.71
2018-09-12T06:47:37.717Z,47.28
2018-09-12T06:50:06.581Z,46.70
2018-09-12T06:52:35.404Z,46.81
2018-09-12T06:55:04.236Z,46.92
2018-09-12T06:57:33.101Z,46.05
2018-09-12T07:00:01.845Z,45.98
2018-09-12T07:02:30.579Z,45.90
2018-09-12T07:04:59.257Z,45.20
2018-09-12T07:07:27.978Z,43.27
2018-09-12T07:09:56.722Z,43.75
2018-09-12T07:12:25.509Z,44.11
2018-09-12T07:14:54.233Z,43.05
2018-09-12T07:17:22.944Z,43.78
2018-09-12T07:19:51.720Z,43.03
2018-09-12T07:22:20.535Z,43.15
2018-09-12T07:24:49.433Z,42.06
2018-09-12T07:27:18.135Z,42.33
2018-09-12T07:29:46.841Z,42.21
2018-09-12T07:32:15.623Z,41.69
2018-09-12T07:34:44.303Z,41.53
2018-09-12T07:37:13.078Z,40.00
2018-09-12T07:39:41.845Z,39.70
2018-09-12T07:42:10.640Z,40.72
2018-09-12T07:44:39.379Z,40.80
2018-09-12T07:47:08.169Z,39.81
2018-09-12T07:49:36.918Z,38.83
2018-09-12T07:52:05.831Z,38.50
2018-09-12T07:54:34.859Z,37.64
2018-09-12T07:57:03.640Z,37.92
2018-09-12T07:59:32.441Z,37.70
2018-09-12T08:02:01.188Z,36.25
2018-09-12T08:04:30.031Z,35.71
2018-09-12T08:06:59.949Z,35.79
2018-09-12T08:09:28.757Z,35.25
2018-09-12T08:11:58.592Z,36.13
2018-09-12T08:14:27.353Z,35.04
2018-09-12T08:16:56.160Z,33.45
2018-09-12T08:19:24.885Z,33.73
2018-09-12T08:21:53.593Z,33.52
2018-09-12T08:24:22.346Z,33.33
2018-09-12T08:26:51.148Z,34.66
2018-09-12T08:29:19.856Z,34.71
2018-09-12T08:31:48.662Z,33.44
2018-09-12T08:34:17.462Z,33.53
2018-09-12T08:36:46.270Z,32.87
2018-09-12T08:39:15.052Z,33.60
2018-09-12T08:41:43.858Z,33.29
2018-09-12T08:44:12.683Z,32.99
2018-09-12T08:46:41.447Z,32.98
2018-09-12T08:49:10.269Z,32.23
2018-09-12T08:51:39.141Z,31.40
2018-09-12T08:54:07.858Z,31.75
2018-09-12T08:56:36.792Z,31.38
2018-09-12T08:59:05.653Z,31.21
2018-09-12T09:01:34.547Z,30.28
2018-09-12T09:04:03.312Z,29.67
2018-09-12T09:06:32.101Z,28.29
2018-09-12T09:09:00.818Z,28.50
2018-09-12T09:11:29.613Z,28.92
2018-09-12T09:13:58.393Z,29.21
2018-09-12T09:16:27.485Z,29.78
2018-09-12T09:18:56.177Z,28.33
2018-09-12T09:21:24.907Z,28.75
2018-09-12T09:23:53.824Z,28.11
2018-09-12T09:26:22.584Z,28.39
2018-09-12T09:28:51.614Z,29.78
2018-09-12T09:31:20.422Z,29.80
2018-09-12T09:33:49.348Z,30.95
2018-09-12T09:36:18.182Z,29.85
2018-09-12T09:38:46.924Z,29.17
2018-09-12T09:41:15.671Z,29.12
2018-09-12T09:43:44.535Z,29.72
2018-09-12T09:46:17.086Z,29.07
2018-09-12T09:48:45.867Z,28.23
2018-09-12T09:51:14.924Z,29.04
2018-09-12T09:53:43.947Z,30.65
2018-09-12T09:56:12.822Z,30.92
2018-09-12T09:58:41.856Z,29.89
2018-09-12T10:01:15.975Z,29.95
2018-09-12T10:03:50.021Z,27.76
2018-09-12T10:06:21.061Z,28.76
2018-09-12T10:08:57.399Z,28.12
2018-09-12T10:11:26.152Z,28.31
2018-09-12T10:13:54.971Z,28.35
2018-09-12T10:16:23.740Z,27.41
2018-09-12T10:18:52.484Z,27.70
2018-09-12T10:21:21.316Z,29.41
2018-09-12T10:23:50.208Z,29.86
2018-09-12T10:26:18.921Z,31.43
2018-09-12T10:28:47.693Z,31.27
2018-09-12T10:31:16.490Z,31.79
2018-09-12T10:33:45.298Z,31.94
2018-09-12T10:36:13.977Z,31.20
2018-09-12T10:38:42.802Z,31.04
2018-09-12T10:41:11.494Z,29.67
2018-09-12T10:43:40.556Z,28.14
2018-09-12T10:46:09.592Z,27.87
2018-09-12T10:48:38.369Z,27.28
2018-09-12T10:51:07.161Z,26.10
2018-09-12T10:53:35.889Z,26.74
2018-09-12T10:56:04.734Z,26.52
2018-09-12T10:58:33.489Z,28.64
2018-09-12T11:01:02.342Z,30.12
2018-09-12T11:03:31.101Z,30.43
2018-09-12T11:05:59.875Z,30.54
2018-09-12T11:08:28.725Z,31.34
2018-09-12T11:10:57.537Z,30.74
2018-09-12T11:13:26.349Z,31.53
2018-09-12T11:15:55.161Z,30.51
2018-09-12T11:18:23.897Z,29.35
2018-09-12T11:20:52.593Z,29.78
2018-09-12T11:23:21.320Z,29.07
2018-09-12T11:25:50.081Z,27.60
2018-09-12T11:28:18.853Z,26.83
2018-09-12T11:30:47.588Z,26.29
2018-09-12T11:33:16.438Z,27.10
2018-09-12T11:35:45.186Z,30.14
2018-09-12T11:38:14.010Z,30.62
2018-09-12T11:40:49.189Z,29.41
2018-09-12T11:43:17.974Z,29.67
2018-09-12T11:45:46.797Z,27.99
2018-09-12T11:48:15.720Z,28.61
2018-09-12T11:50:44.487Z,30.37
2018-09-12T11:53:13.316Z,30.55
2018-09-12T11:55:42.157Z,30.57
2018-09-12T11:58:10.972Z,30.34
2018-09-12T12:00:39.889Z,30.46
2018-09-12T12:03:08.700Z,31.40
2018-09-12T12:05:37.512Z,32.83
2018-09-12T12:08:06.287Z,32.14
2018-09-12T12:10:35.097Z,32.65
2018-09-12T12:13:03.952Z,33.47
2018-09-12T12:15:32.694Z,32.84
2018-09-12T12:18:01.544Z,32.39
2018-09-12T12:20:30.455Z,31.32
2018-09-12T12:22:59.226Z,32.25
2018-09-12T12:25:27.987Z,31.31
2018-09-12T12:27:56.763Z,32.06
2018-09-12T12:30:26.361Z,33.27
2018-09-12T12:32:55.163Z,31.14
2018-09-12T12:35:24.058Z,29.81
2018-09-12T12:37:53.261Z,30.49
2018-09-12T12:40:22.291Z,30.08
2018-09-12T12:42:51.134Z,30.18
2018-09-12T12:45:19.877Z,32.63
2018-09-12T12:47:48.719Z,33.73
2018-09-12T12:50:17.573Z,33.75
2018-09-12T12:52:46.682Z,33.63
2018-09-12T12:55:15.421Z,33.09
2018-09-12T12:57:44.163Z,32.96
2018-09-12T13:00:13.024Z,33.25
2018-09-12T13:02:41.720Z,32.55
2018-09-12T13:05:10.536Z,32.22
2018-09-12T13:07:39.469Z,32.89
2018-09-12T13:10:08.248Z,32.29
2018-09-12T13:12:37.083Z,31.61
2018-09-12T13:15:06.016Z,32.12
2018-09-12T13:17:34.772Z,31.93
2018-09-12T13:20:03.597Z,31.22
2018-09-12T13:22:32.280Z,31.96
2018-09-12T13:25:01.046Z,32.17
2018-09-12T13:27:29.946Z,32.43
2018-09-12T13:29:59.032Z,33.73
2018-09-12T13:32:28.052Z,34.07
2018-09-12T13:34:56.821Z,33.49
2018-09-12T13:37:25.547Z,34.59
2018-09-12T13:39:54.377Z,34.14
2018-09-12T13:42:23.141Z,34.82
2018-09-12T13:44:51.937Z,34.71
2018-09-12T13:47:20.978Z,33.85
2018-09-12T13:49:49.744Z,33.99
2018-09-12T13:52:18.584Z,33.60
2018-09-12T13:54:47.351Z,34.11
2018-09-12T13:57:16.039Z,34.23
2018-09-12T13:59:44.734Z,34.31
2018-09-12T14:02:13.502Z,34.21
2018-09-12T14:04:42.336Z,34.20
2018-09-12T14:07:11.150Z,35.06
2018-09-12T14:09:39.908Z,35.00
2018-09-12T14:12:08.843Z,35.13
2018-09-12T14:14:37.635Z,35.02
2018-09-12T14:17:06.444Z,34.39
2018-09-12T14:19:35.259Z,34.25
2018-09-12T14:22:03.899Z,33.62
2018-09-12T14:24:32.686Z,33.83
2018-09-12T14:27:01.431Z,34.08
2018-09-12T14:29:30.215Z,33.88
2018-09-12T14:31:58.979Z,33.92
2018-09-12T14:34:27.670Z,34.35
2018-09-12T14:36:56.407Z,34.84
2018-09-12T14:39:25.212Z,34.40
2018-09-12T14:41:53.959Z,34.96
2018-09-12T14:44:22.841Z,34.64
2018-09-12T14:46:51.687Z,35.00
2018-09-12T14:49:20.435Z,35.01
2018-09-12T14:51:49.274Z,34.46
2018-09-12T14:54:17.955Z,34.99
2018-09-12T14:56:46.671Z,34.39
2018-09-12T14:59:15.423Z,35.18
2018-09-12T15:01:44.104Z,36.10
2018-09-12T15:04:12.860Z,36.10
2018-09-12T15:06:41.746Z,36.16
2018-09-12T15:09:12.574Z,36.23
2018-09-12T15:11:41.370Z,36.46
2018-09-12T15:14:10.539Z,36.11
2018-09-12T15:16:39.378Z,36.85
2018-09-12T15:19:08.145Z,36.08
2018-09-12T15:21:36.824Z,36.35
2018-09-12T15:24:05.573Z,35.37
2018-09-12T15:26:34.372Z,36.10
2018-09-12T15:29:03.023Z,35.71
2018-09-12T15:31:31.731Z,35.48
2018-09-12T15:34:00.432Z,36.67
2018-09-12T15:36:29.155Z,36.33
2018-09-12T15:38:57.940Z,36.32
2018-09-12T15:41:26.659Z,37.22
2018-09-12T15:43:55.459Z,37.09
2018-09-12T15:46:24.208Z,37.28
2018-09-12T15:48:52.980Z,36.31
2018-09-12T15:51:21.689Z,37.27
2018-09-12T15:53:50.413Z,37.04
2018-09-12T15:56:19.215Z,37.24
2018-09-12T15:58:47.896Z,36.84
2018-09-12T16:01:16.558Z,36.52
2018-09-12T16:03:45.325Z,37.60
2018-09-12T16:06:14.051Z,37.92
2018-09-12T16:08:42.868Z,37.97
2018-09-12T16:11:11.715Z,37.99
2018-09-12T16:13:40.589Z,37.96
2018-09-12T16:16:09.401Z,38.32
2018-09-12T16:18:39.885Z,37.79
2018-09-12T16:21:08.595Z,38.29
2018-09-12T16:23:37.431Z,38.23
2018-09-12T16:26:06.352Z,39.12
2018-09-12T16:28:35.255Z,39.30
2018-09-12T16:31:03.923Z,39.40
2018-09-12T16:33:32.620Z,38.82
2018-09-12T16:36:02.710Z,39.56
2018-09-12T16:38:31.395Z,38.99
2018-09-12T16:41:00.189Z,39.31
2018-09-12T16:43:28.867Z,40.70
2018-09-12T16:45:57.700Z,40.80
2018-09-12T16:48:26.607Z,40.54
2018-09-12T16:50:55.427Z,41.33
2018-09-12T16:53:24.216Z,41.23
2018-09-12T16:55:52.919Z,40.79
2018-09-12T16:58:21.667Z,41.35
2018-09-12T17:00:50.419Z,41.17
2018-09-12T17:03:19.191Z,41.47
2018-09-12T17:05:47.892Z,41.57
2018-09-12T17:08:17.030Z,41.79
2018-09-12T17:10:45.815Z,41.82
2018-09-12T17:13:14.500Z,42.35
2018-09-12T17:15:43.291Z,42.75
2018-09-12T17:18:11.928Z,41.67
2018-09-12T17:20:40.591Z,42.16
2018-09-12T17:23:10.031Z,42.52
2018-09-12T17:25:38.743Z,42.03
2018-09-12T17:28:07.366Z,42.44
2018-09-12T17:30:36.087Z,42.60
2018-09-12T17:33:04.797Z,42.32
2018-09-12T17:35:33.525Z,42.85
2018-09-12T17:38:02.247Z,43.27
2018-09-12T17:40:31.000Z,43.74
2018-09-12T17:42:59.735Z,43.34
2018-09-12T17:45:28.546Z,43.79
2018-09-12T17:47:57.171Z,43.53
2018-09-12T17:50:25.854Z,43.57
2018-09-12T17:52:54.532Z,43.74
2018-09-12T17:55:23.196Z,44.33
2018-09-12T17:57:51.868Z,44.71
2018-09-12T18:00:20.688Z,44.44
2018-09-12T18:02:49.491Z,44.83
2018-09-12T18:05:18.267Z,44.79
2018-09-12T18:07:46.926Z,45.84
2018-09-12T18:10:15.645Z,45.01
2018-09-12T18:12:44.337Z,45.19
2018-09-12T18:15:13.027Z,45.59
2018-09-12T18:17:41.810Z,46.38
2018-09-12T18:20:10.660Z,46.93
2018-09-12T18:22:39.396Z,47.05
2018-09-12T18:25:08.121Z,46.64
2018-09-12T18:27:36.789Z,47.09
2018-09-12T18:30:07.643Z,47.06
2018-09-12T18:32:36.327Z,47.77
2018-09-12T18:35:05.109Z,48.33
2018-09-12T18:37:33.960Z,48.16
2018-09-12T18:40:03.231Z,47.62
2018-09-12T18:42:32.089Z,48.50
2018-09-12T18:45:00.809Z,47.77
2018-09-12T18:47:29.535Z,47.93
2018-09-12T18:49:58.281Z,48.16
2018-09-12T18:52:26.990Z,49.17
2018-09-12T18:54:55.672Z,49.57
2018-09-12T18:57:24.348Z,49.25
2018-09-12T18:59:52.994Z,49.79
2018-09-12T19:02:21.784Z,49.17
2018-09-12T19:04:50.659Z,49.69
2018-09-12T19:07:19.381Z,50.19
2018-09-12T19:09:48.082Z,50.09
2018-09-12T19:12:16.761Z,49.96
2018-09-12T19:14:45.457Z,50.18
2018-09-12T19:17:14.234Z,50.33
2018-09-12T19:19:42.970Z,50.34
2018-09-12T19:22:11.760Z,51.00
2018-09-12T19:24:40.442Z,50.56
2018-09-12T19:27:09.250Z,51.12
2018-09-12T19:29:38.003Z,51.46
2018-09-12T19:32:07.112Z,50.88
2018-09-12T19:34:35.820Z,51.47
2018-09-12T19:37:04.522Z,51.29
2018-09-12T19:39:33.217Z,51.60
2018-09-12T19:42:01.932Z,51.71
2018-09-12T19:44:30.698Z,50.94
2018-09-12T19:46:59.602Z,51.29
2018-09-12T19:49:28.272Z,51.90
2018-09-12T19:51:56.951Z,51.91
2018-09-12T19:54:25.746Z,53.19
2018-09-12T19:56:54.448Z,53.52
2018-09-12T19:59:23.531Z,53.27
2018-09-12T20:01:52.231Z,54.45
2018-09-12T20:04:20.933Z,54.46
2018-09-12T20:06:49.703Z,55.18
2018-09-12T20:09:18.515Z,54.44
2018-09-12T20:11:47.275Z,53.70
2018-09-12T20:14:16.086Z,54.96
2018-09-12T20:16:44.782Z,55.32
2018-09-12T20:19:13.792Z,55.16
2018-09-12T20:21:42.637Z,55.06
2018-09-12T20:24:11.583Z,55.56
2018-09-12T20:26:40.241Z,55.84
2018-09-12T20:29:09.078Z,56.26
2018-09-12T20:31:37.883Z,56.41
2018-09-12T20:34:06.835Z,56.99
2018-09-12T20:36:35.576Z,57.83
2018-09-12T20:39:06.330Z,57.37
2018-09-12T20:41:35.038Z,58.23
2018-09-12T20:44:03.817Z,58.06
2018-09-12T20:46:32.591Z,58.44
2018-09-12T20:49:01.271Z,58.05
2018-09-12T20:51:29.928Z,57.80
2018-09-12T20:53:59.555Z,58.42
2018-09-12T20:56:28.274Z,58.85
2018-09-12T20:58:57.956Z,59.46
2018-09-12T21:01:26.745Z,59.71
2018-09-12T21:03:55.415Z,60.90
2018-09-12T21:06:24.102Z,61.33
2018-09-12T21:08:52.818Z,61.31
2018-09-12T21:11:21.492Z,61.99
2018-09-12T21:13:50.185Z,61.95
2018-09-12T21:16:18.891Z,61.54
2018-09-12T21:18:47.640Z,62.50
2018-09-12T21:21:16.319Z,62.92
2018-09-12T21:23:45.180Z,62.23
2018-09-12T21:26:14.809Z,61.91
2018-09-12T21:28:43.495Z,61.14
2018-09-12T21:31:12.289Z,60.98
2018-09-12T21:33:40.981Z,62.18
2018-09-12T21:36:09.787Z,61.85
2018-09-12T21:38:38.618Z,61.74
2018-09-12T21:41:07.614Z,61.23
2018-09-12T21:43:36.331Z,62.23
2018-09-12T21:46:05.138Z,62.47
2018-09-12T21:48:33.869Z,61.80
2018-09-12T21:51:02.585Z,61.77
2018-09-12T21:53:31.443Z,62.06
2018-09-12T21:56:00.361Z,62.11
2018-09-12T21:58:29.102Z,61.93
2018-09-12T22:00:58.011Z,62.99
2018-09-12T22:03:26.819Z,62.61
2018-09-12T22:05:55.671Z,62.93
2018-09-12T22:08:24.423Z,62.54
2018-09-12T22:10:53.064Z,62.79
2018-09-12T22:13:21.778Z,63.33
2018-09-12T22:15:50.494Z,63.18
2018-09-12T22:18:19.294Z,63.43
2018-09-12T22:20:47.964Z,62.95
2018-09-12T22:23:16.786Z,62.84
2018-09-12T22:25:45.574Z,63.38
2018-09-12T22:28:14.340Z,63.15
2018-09-12T22:30:43.023Z,62.27
2018-09-12T22:33:11.759Z,62.31
2018-09-12T22:35:40.488Z,61.40
2018-09-12T22:38:09.234Z,62.28
2018-09-12T22:40:37.887Z,61.50
2018-09-12T22:43:06.940Z,60.86
2018-09-12T22:45:35.592Z,61.03
2018-09-12T22:48:04.317Z,61.63
2018-09-12T22:50:33.099Z,61.81
2018-09-12T22:53:01.843Z,61.90
2018-09-12T22:55:30.571Z,62.03
2018-09-12T22:57:59.260Z,62.43
2018-09-12T23:00:28.006Z,61.65
2018-09-12T23:02:56.762Z,61.41
2018-09-12T23:05:25.603Z,61.65
2018-09-12T23:07:54.456Z,62.57
2018-09-12T23:10:23.195Z,62.71
2018-09-12T23:12:52.037Z,62.34
2018-09-12T23:15:20.803Z,61.88
2018-09-12T23:17:49.516Z,61.36
2018-09-12T23:20:18.172Z,62.29
2018-09-12T23:22:46.828Z,62.57
2018-09-12T23:25:15.555Z,61.86
2018-09-12T23:27:44.319Z,61.41
2018-09-12T23:30:13.097Z,62.73
2018-09-12T23:32:41.823Z,62.32
2018-09-12T23:35:10.577Z,62.22
2018-09-12T23:37:39.241Z,62.87
2018-09-12T23:40:08.040Z,62.60
2018-09-12T23:42:36.784Z,63.43
2018-09-12T23:45:05.560Z,63.46
2018-09-12T23:47:34.270Z,62.62
2018-09-12T23:50:02.918Z,62.63
2018-09-12T23:52:31.780Z,63.51
2018-09-12T23:55:14.995Z,63.69
2018-09-12T23:57:43.650Z,62.69
